sensor_id;sensor_type;location;lat;lon;timestamp;temperature;humidity
25112;DHT22;13092;51.996;4.458;2022-10-18T00:00:54;15.80;99.90
25112;DHT22;13092;51.996;4.458;2022-10-18T00:03:22;15.70;99.90
25112;DHT22;13092;51.996;4.458;2022-10-18T00:05:50;15.80;99.90
25112;DHT22;13092;51.996;4.458;2022-10-18T00:08:19;15.60;99.90
25112;DHT22;13092;51.996;4.458;2022-10-18T00:10:49;15.50;99.90
25112;DHT22;13092;51.996;4.458;2022-10-18T00:13:17;15.60;99.90
25112;DHT22;13092;51.996;4.458;2022-10-18T00:15:49;15.50;99.90
25112;DHT22;13092;51.996;4.458;2022-10-18T00:18:18;15.50;99.90
25112;DHT22;13092;51.996;4.458;2022-10-18T00:20:55;15.40;99.90
25112;DHT22;13092;51.996;4.458;2022-10-18T00:23:23;15.40;99.90
25112;DHT22;13092;51.996;4.458;2022-10-18T00:26:00;15.40;99.90
25112;DHT22;13092;51.996;4.458;2022-10-18T00:28:28;15.30;99.90
25112;DHT22;13092;51.996;4.458;2022-10-18T00:30:56;15.30;99.90
25112;DHT22;13092;51.996;4.458;2022-10-18T00:33:24;15.30;99.90
25112;DHT22;13092;51.996;4.458;2022-10-18T00:35:52;15.20;99.90
25112;DHT22;13092;51.996;4.458;2022-10-18T00:38:20;15.20;99.90
25112;DHT22;13092;51.996;4.458;2022-10-18T00:40:48;15.20;99.90
25112;DHT22;13092;51.996;4.458;2022-10-18T00:43:18;15.10;99.90
25112;DHT22;13092;51.996;4.458;2022-10-18T00:45:46;15.20;99.90
25112;DHT22;13092;51.996;4.458;2022-10-18T00:48:14;15.00;99.90
25112;DHT22;13092;51.996;4.458;2022-10-18T00:50:45;15.10;99.90
25112;DHT22;13092;51.996;4.458;2022-10-18T00:53:16;15.20;99.90
25112;DHT22;13092;51.996;4.458;2022-10-18T00:55:44;15.10;99.90
25112;DHT22;13092;51.996;4.458;2022-10-18T00:58:15;15.20;99.90
25112;DHT22;13092;51.996;4.458;2022-10-18T01:00:45;15.00;99.90
25112;DHT22;13092;51.996;4.458;2022-10-18T01:03:13;15.00;99.90
25112;DHT22;13092;51.996;4.458;2022-10-18T01:05:43;15.00;99.90
25112;DHT22;13092;51.996;4.458;2022-10-18T01:08:39;15.10;99.90
25112;DHT22;13092;51.996;4.458;2022-10-18T01:11:20;14.90;99.90
25112;DHT22;13092;51.996;4.458;2022-10-18T01:13:59;14.90;99.90
25112;DHT22;13092;51.996;4.458;2022-10-18T01:16:36;14.90;99.90
25112;DHT22;13092;51.996;4.458;2022-10-18T01:19:15;14.90;99.90
25112;DHT22;13092;51.996;4.458;2022-10-18T01:21:49;14.80;99.90
25112;DHT22;13092;51.996;4.458;2022-10-18T01:24:45;14.70;99.90
25112;DHT22;13092;51.996;4.458;2022-10-18T01:27:28;14.80;99.90
25112;DHT22;13092;51.996;4.458;2022-10-18T01:30:19;14.80;99.90
25112;DHT22;13092;51.996;4.458;2022-10-18T01:32:51;14.80;99.90
25112;DHT22;13092;51.996;4.458;2022-10-18T01:35:23;14.60;99.90
25112;DHT22;13092;51.996;4.458;2022-10-18T01:37:56;14.70;99.90
25112;DHT22;13092;51.996;4.458;2022-10-18T01:40:27;14.60;99.90
25112;DHT22;13092;51.996;4.458;2022-10-18T01:42:56;14.60;99.90
25112;DHT22;13092;51.996;4.458;2022-10-18T01:45:26;14.50;99.90
25112;DHT22;13092;51.996;4.458;2022-10-18T01:47:54;14.50;99.90
25112;DHT22;13092;51.996;4.458;2022-10-18T01:50:30;14.50;99.90
25112;DHT22;13092;51.996;4.458;2022-10-18T01:52:59;14.40;99.90
25112;DHT22;13092;51.996;4.458;2022-10-18T01:55:32;14.30;99.90
25112;DHT22;13092;51.996;4.458;2022-10-18T01:58:05;14.40;99.90
25112;DHT22;13092;51.996;4.458;2022-10-18T02:00:40;14.40;99.90
25112;DHT22;13092;51.996;4.458;2022-10-18T02:03:13;14.20;99.90
25112;DHT22;13092;51.996;4.458;2022-10-18T02:05:48;14.30;99.90
25112;DHT22;13092;51.996;4.458;2022-10-18T02:08:24;14.30;99.90
25112;DHT22;13092;51.996;4.458;2022-10-18T02:11:01;14.20;99.90
25112;DHT22;13092;51.996;4.458;2022-10-18T02:13:33;14.20;99.90
25112;DHT22;13092;51.996;4.458;2022-10-18T02:16:08;14.20;99.90
25112;DHT22;13092;51.996;4.458;2022-10-18T02:18:41;14.20;99.90
25112;DHT22;13092;51.996;4.458;2022-10-18T02:21:15;14.10;99.90
25112;DHT22;13092;51.996;4.458;2022-10-18T02:23:45;14.10;99.90
25112;DHT22;13092;51.996;4.458;2022-10-18T02:26:14;14.10;99.90
25112;DHT22;13092;51.996;4.458;2022-10-18T02:28:42;14.10;99.90
25112;DHT22;13092;51.996;4.458;2022-10-18T02:31:17;14.00;99.90
25112;DHT22;13092;51.996;4.458;2022-10-18T02:33:49;14.00;99.90
25112;DHT22;13092;51.996;4.458;2022-10-18T02:36:23;14.00;99.90
25112;DHT22;13092;51.996;4.458;2022-10-18T02:38:54;14.00;99.90
25112;DHT22;13092;51.996;4.458;2022-10-18T02:41:24;13.90;99.90
25112;DHT22;13092;51.996;4.458;2022-10-18T02:43:53;14.00;99.90
25112;DHT22;13092;51.996;4.458;2022-10-18T02:46:22;13.90;99.90
25112;DHT22;13092;51.996;4.458;2022-10-18T02:48:50;13.80;99.90
25112;DHT22;13092;51.996;4.458;2022-10-18T02:51:18;13.80;99.90
25112;DHT22;13092;51.996;4.458;2022-10-18T02:53:46;13.80;99.90
25112;DHT22;13092;51.996;4.458;2022-10-18T02:56:14;13.80;99.90
25112;DHT22;13092;51.996;4.458;2022-10-18T02:58:42;13.70;99.90
25112;DHT22;13092;51.996;4.458;2022-10-18T03:01:10;13.70;99.90
25112;DHT22;13092;51.996;4.458;2022-10-18T03:03:40;13.70;99.90
25112;DHT22;13092;51.996;4.458;2022-10-18T03:06:08;13.70;99.90
25112;DHT22;13092;51.996;4.458;2022-10-18T03:08:36;13.70;99.90
25112;DHT22;13092;51.996;4.458;2022-10-18T03:11:04;13.60;99.90
25112;DHT22;13092;51.996;4.458;2022-10-18T03:13:32;13.60;99.90
25112;DHT22;13092;51.996;4.458;2022-10-18T03:16:00;13.60;99.90
25112;DHT22;13092;51.996;4.458;2022-10-18T03:18:28;13.60;99.90
25112;DHT22;13092;51.996;4.458;2022-10-18T03:21:03;13.60;99.90
25112;DHT22;13092;51.996;4.458;2022-10-18T03:23:31;13.60;99.90
25112;DHT22;13092;51.996;4.458;2022-10-18T03:25:59;13.50;99.90
25112;DHT22;13092;51.996;4.458;2022-10-18T03:28:27;13.50;99.90
25112;DHT22;13092;51.996;4.458;2022-10-18T03:30:59;13.50;99.90
25112;DHT22;13092;51.996;4.458;2022-10-18T03:33:27;13.30;99.90
25112;DHT22;13092;51.996;4.458;2022-10-18T03:35:55;13.50;99.90
25112;DHT22;13092;51.996;4.458;2022-10-18T03:38:25;13.40;99.90
25112;DHT22;13092;51.996;4.458;2022-10-18T03:40:53;13.50;99.90
25112;DHT22;13092;51.996;4.458;2022-10-18T03:43:21;13.40;99.90
25112;DHT22;13092;51.996;4.458;2022-10-18T03:45:50;13.40;99.90
25112;DHT22;13092;51.996;4.458;2022-10-18T03:48:18;13.40;99.90
25112;DHT22;13092;51.996;4.458;2022-10-18T03:50:46;13.50;99.90
25112;DHT22;13092;51.996;4.458;2022-10-18T03:53:14;13.40;99.90
25112;DHT22;13092;51.996;4.458;2022-10-18T03:55:43;13.40;99.90
25112;DHT22;13092;51.996;4.458;2022-10-18T03:58:11;13.40;99.90
25112;DHT22;13092;51.996;4.458;2022-10-18T04:00:39;13.40;99.90
25112;DHT22;13092;51.996;4.458;2022-10-18T04:03:07;13.40;99.90
25112;DHT22;13092;51.996;4.458;2022-10-18T04:05:35;13.40;99.90
25112;DHT22;13092;51.996;4.458;2022-10-18T04:08:04;13.40;99.90
25112;DHT22;13092;51.996;4.458;2022-10-18T04:10:32;13.30;99.90
25112;DHT22;13092;51.996;4.458;2022-10-18T04:13:01;13.40;99.90
25112;DHT22;13092;51.996;4.458;2022-10-18T04:15:29;13.30;99.90
25112;DHT22;13092;51.996;4.458;2022-10-18T04:17:58;13.30;99.90
25112;DHT22;13092;51.996;4.458;2022-10-18T04:20:27;13.30;99.90
25112;DHT22;13092;51.996;4.458;2022-10-18T04:22:55;13.30;99.90
25112;DHT22;13092;51.996;4.458;2022-10-18T04:25:23;13.20;99.90
25112;DHT22;13092;51.996;4.458;2022-10-18T04:27:52;13.20;99.90
25112;DHT22;13092;51.996;4.458;2022-10-18T04:30:21;13.20;99.90
25112;DHT22;13092;51.996;4.458;2022-10-18T04:32:49;13.30;99.90
25112;DHT22;13092;51.996;4.458;2022-10-18T04:35:17;13.10;99.90
25112;DHT22;13092;51.996;4.458;2022-10-18T04:37:45;13.20;99.90
25112;DHT22;13092;51.996;4.458;2022-10-18T04:40:13;13.10;99.90
25112;DHT22;13092;51.996;4.458;2022-10-18T04:42:41;13.10;99.90
25112;DHT22;13092;51.996;4.458;2022-10-18T04:45:10;13.10;99.90
25112;DHT22;13092;51.996;4.458;2022-10-18T04:47:39;13.00;99.90
25112;DHT22;13092;51.996;4.458;2022-10-18T04:50:07;13.00;99.90
25112;DHT22;13092;51.996;4.458;2022-10-18T04:52:35;13.00;99.90
25112;DHT22;13092;51.996;4.458;2022-10-18T04:55:04;13.00;99.90
25112;DHT22;13092;51.996;4.458;2022-10-18T04:57:32;12.90;99.90
25112;DHT22;13092;51.996;4.458;2022-10-18T05:00:00;12.90;99.90
25112;DHT22;13092;51.996;4.458;2022-10-18T05:02:29;12.90;99.90
25112;DHT22;13092;51.996;4.458;2022-10-18T05:04:58;12.80;99.90
25112;DHT22;13092;51.996;4.458;2022-10-18T05:07:26;12.70;99.90
25112;DHT22;13092;51.996;4.458;2022-10-18T05:09:54;12.70;99.90
25112;DHT22;13092;51.996;4.458;2022-10-18T05:12:23;12.70;99.90
25112;DHT22;13092;51.996;4.458;2022-10-18T05:14:51;12.60;99.90
25112;DHT22;13092;51.996;4.458;2022-10-18T05:17:21;12.60;99.90
25112;DHT22;13092;51.996;4.458;2022-10-18T05:19:49;12.70;99.90
25112;DHT22;13092;51.996;4.458;2022-10-18T05:22:19;12.60;99.90
25112;DHT22;13092;51.996;4.458;2022-10-18T05:24:47;12.60;99.90
25112;DHT22;13092;51.996;4.458;2022-10-18T05:27:15;12.60;99.90
25112;DHT22;13092;51.996;4.458;2022-10-18T05:29:43;12.60;99.90
25112;DHT22;13092;51.996;4.458;2022-10-18T05:32:13;12.50;99.90
25112;DHT22;13092;51.996;4.458;2022-10-18T05:34:41;12.60;99.90
25112;DHT22;13092;51.996;4.458;2022-10-18T05:37:09;12.70;99.90
25112;DHT22;13092;51.996;4.458;2022-10-18T05:39:39;12.50;99.90
25112;DHT22;13092;51.996;4.458;2022-10-18T05:42:07;12.40;99.90
25112;DHT22;13092;51.996;4.458;2022-10-18T05:44:35;12.40;99.90
25112;DHT22;13092;51.996;4.458;2022-10-18T05:47:03;12.50;99.90
25112;DHT22;13092;51.996;4.458;2022-10-18T05:49:31;12.50;99.90
25112;DHT22;13092;51.996;4.458;2022-10-18T05:51:59;12.40;99.90
25112;DHT22;13092;51.996;4.458;2022-10-18T05:54:27;12.60;99.90
25112;DHT22;13092;51.996;4.458;2022-10-18T05:56:57;12.40;99.90
25112;DHT22;13092;51.996;4.458;2022-10-18T05:59:25;12.40;99.90
25112;DHT22;13092;51.996;4.458;2022-10-18T06:01:53;12.40;99.90
25112;DHT22;13092;51.996;4.458;2022-10-18T06:04:21;12.40;99.90
25112;DHT22;13092;51.996;4.458;2022-10-18T06:06:50;12.50;99.90
25112;DHT22;13092;51.996;4.458;2022-10-18T06:09:18;12.40;99.90
25112;DHT22;13092;51.996;4.458;2022-10-18T06:11:46;12.40;99.90
25112;DHT22;13092;51.996;4.458;2022-10-18T06:14:15;12.30;99.90
25112;DHT22;13092;51.996;4.458;2022-10-18T06:16:43;12.30;99.90
25112;DHT22;13092;51.996;4.458;2022-10-18T06:19:11;12.30;99.90
25112;DHT22;13092;51.996;4.458;2022-10-18T06:21:39;12.50;99.90
25112;DHT22;13092;51.996;4.458;2022-10-18T06:24:07;12.30;99.90
25112;DHT22;13092;51.996;4.458;2022-10-18T06:26:35;12.30;99.90
25112;DHT22;13092;51.996;4.458;2022-10-18T06:29:03;12.30;99.90
25112;DHT22;13092;51.996;4.458;2022-10-18T06:31:33;12.20;99.90
25112;DHT22;13092;51.996;4.458;2022-10-18T06:34:01;12.20;99.90
25112;DHT22;13092;51.996;4.458;2022-10-18T06:36:30;12.30;99.90
25112;DHT22;13092;51.996;4.458;2022-10-18T06:38:58;12.40;99.90
25112;DHT22;13092;51.996;4.458;2022-10-18T06:41:26;12.30;99.90
25112;DHT22;13092;51.996;4.458;2022-10-18T06:43:54;12.20;99.90
25112;DHT22;13092;51.996;4.458;2022-10-18T06:46:25;12.10;99.90
25112;DHT22;13092;51.996;4.458;2022-10-18T06:48:54;12.20;99.90
25112;DHT22;13092;51.996;4.458;2022-10-18T06:51:23;12.20;99.90
25112;DHT22;13092;51.996;4.458;2022-10-18T06:53:51;12.20;99.90
25112;DHT22;13092;51.996;4.458;2022-10-18T06:56:39;12.20;99.90
25112;DHT22;13092;51.996;4.458;2022-10-18T06:59:07;12.20;99.90
25112;DHT22;13092;51.996;4.458;2022-10-18T07:01:35;12.20;99.90
25112;DHT22;13092;51.996;4.458;2022-10-18T07:04:04;12.30;99.90
25112;DHT22;13092;51.996;4.458;2022-10-18T07:06:32;12.20;99.90
25112;DHT22;13092;51.996;4.458;2022-10-18T07:09:01;12.20;99.90
25112;DHT22;13092;51.996;4.458;2022-10-18T07:11:29;12.20;99.90
25112;DHT22;13092;51.996;4.458;2022-10-18T07:13:59;12.20;99.90
25112;DHT22;13092;51.996;4.458;2022-10-18T07:16:29;12.40;99.90
25112;DHT22;13092;51.996;4.458;2022-10-18T07:18:57;12.30;99.90
25112;DHT22;13092;51.996;4.458;2022-10-18T07:21:27;12.30;99.90
25112;DHT22;13092;51.996;4.458;2022-10-18T07:23:56;12.50;99.90
25112;DHT22;13092;51.996;4.458;2022-10-18T07:26:25;12.30;99.90
25112;DHT22;13092;51.996;4.458;2022-10-18T07:28:57;12.40;99.90
25112;DHT22;13092;51.996;4.458;2022-10-18T07:31:27;12.40;99.90
25112;DHT22;13092;51.996;4.458;2022-10-18T07:33:55;12.50;99.90
25112;DHT22;13092;51.996;4.458;2022-10-18T07:36:27;12.50;99.90
25112;DHT22;13092;51.996;4.458;2022-10-18T07:38:55;12.60;99.90
25112;DHT22;13092;51.996;4.458;2022-10-18T07:41:23;12.60;99.90
25112;DHT22;13092;51.996;4.458;2022-10-18T07:43:52;12.70;99.90
25112;DHT22;13092;51.996;4.458;2022-10-18T07:46:21;12.60;99.90
25112;DHT22;13092;51.996;4.458;2022-10-18T07:48:49;12.80;99.90
25112;DHT22;13092;51.996;4.458;2022-10-18T07:51:18;12.80;99.90
25112;DHT22;13092;51.996;4.458;2022-10-18T07:53:48;12.90;99.90
25112;DHT22;13092;51.996;4.458;2022-10-18T07:56:19;12.80;99.90
25112;DHT22;13092;51.996;4.458;2022-10-18T07:58:48;12.90;99.90
25112;DHT22;13092;51.996;4.458;2022-10-18T08:01:19;13.00;99.90
25112;DHT22;13092;51.996;4.458;2022-10-18T08:03:47;13.00;99.90
25112;DHT22;13092;51.996;4.458;2022-10-18T08:06:17;13.10;99.90
25112;DHT22;13092;51.996;4.458;2022-10-18T08:08:52;13.10;99.90
25112;DHT22;13092;51.996;4.458;2022-10-18T08:22:04;13.50;99.90
25112;DHT22;13092;51.996;4.458;2022-10-18T08:24:33;13.60;99.90
25112;DHT22;13092;51.996;4.458;2022-10-18T08:27:01;13.60;99.90
25112;DHT22;13092;51.996;4.458;2022-10-18T08:29:29;13.70;99.90
25112;DHT22;13092;51.996;4.458;2022-10-18T08:31:57;13.90;99.90
25112;DHT22;13092;51.996;4.458;2022-10-18T08:34:25;13.80;99.90
25112;DHT22;13092;51.996;4.458;2022-10-18T08:36:54;13.90;99.90
25112;DHT22;13092;51.996;4.458;2022-10-18T08:39:23;14.00;99.90
25112;DHT22;13092;51.996;4.458;2022-10-18T08:45:11;14.10;99.90
25112;DHT22;13092;51.996;4.458;2022-10-18T08:48:04;14.20;99.90
25112;DHT22;13092;51.996;4.458;2022-10-18T08:50:33;14.30;99.90
25112;DHT22;13092;51.996;4.458;2022-10-18T08:53:14;14.40;99.90
25112;DHT22;13092;51.996;4.458;2022-10-18T08:55:46;14.40;99.90
25112;DHT22;13092;51.996;4.458;2022-10-18T08:58:20;14.50;99.90
25112;DHT22;13092;51.996;4.458;2022-10-18T09:00:57;14.40;99.90
25112;DHT22;13092;51.996;4.458;2022-10-18T09:03:57;14.60;99.90
25112;DHT22;13092;51.996;4.458;2022-10-18T09:06:31;14.60;99.90
25112;DHT22;13092;51.996;4.458;2022-10-18T09:09:13;14.70;99.90
25112;DHT22;13092;51.996;4.458;2022-10-18T09:11:50;14.70;99.90
25112;DHT22;13092;51.996;4.458;2022-10-18T09:17:43;14.80;99.90
25112;DHT22;13092;51.996;4.458;2022-10-18T09:20:21;14.90;99.90
25112;DHT22;13092;51.996;4.458;2022-10-18T09:22:55;14.90;99.90
25112;DHT22;13092;51.996;4.458;2022-10-18T09:25:25;14.90;99.90
25112;DHT22;13092;51.996;4.458;2022-10-18T09:28:09;15.00;99.90
25112;DHT22;13092;51.996;4.458;2022-10-18T09:30:47;15.20;99.90
25112;DHT22;13092;51.996;4.458;2022-10-18T09:33:27;15.30;99.90
25112;DHT22;13092;51.996;4.458;2022-10-18T09:35:59;15.20;99.90
25112;DHT22;13092;51.996;4.458;2022-10-18T09:38:31;15.30;99.90
25112;DHT22;13092;51.996;4.458;2022-10-18T09:41:03;15.30;99.90
25112;DHT22;13092;51.996;4.458;2022-10-18T09:43:41;15.40;99.90
25112;DHT22;13092;51.996;4.458;2022-10-18T09:46:14;15.50;99.90
25112;DHT22;13092;51.996;4.458;2022-10-18T09:48:49;15.50;99.90
25112;DHT22;13092;51.996;4.458;2022-10-18T09:51:19;15.40;99.90
25112;DHT22;13092;51.996;4.458;2022-10-18T09:54:02;15.50;99.90
25112;DHT22;13092;51.996;4.458;2022-10-18T09:56:33;15.60;99.90
25112;DHT22;13092;51.996;4.458;2022-10-18T09:59:22;15.60;99.90
25112;DHT22;13092;51.996;4.458;2022-10-18T10:01:54;15.80;99.90
25112;DHT22;13092;51.996;4.458;2022-10-18T10:04:24;15.90;99.90
25112;DHT22;13092;51.996;4.458;2022-10-18T10:06:54;16.00;99.90
25112;DHT22;13092;51.996;4.458;2022-10-18T10:09:26;16.00;99.90
25112;DHT22;13092;51.996;4.458;2022-10-18T10:11:55;16.20;99.90
25112;DHT22;13092;51.996;4.458;2022-10-18T10:14:28;16.20;99.90
25112;DHT22;13092;51.996;4.458;2022-10-18T10:16:58;16.20;99.90
25112;DHT22;13092;51.996;4.458;2022-10-18T10:19:31;16.30;99.90
25112;DHT22;13092;51.996;4.458;2022-10-18T10:22:03;16.40;99.90
25112;DHT22;13092;51.996;4.458;2022-10-18T10:24:38;16.40;99.90
25112;DHT22;13092;51.996;4.458;2022-10-18T10:27:16;16.40;99.90
25112;DHT22;13092;51.996;4.458;2022-10-18T10:29:53;16.50;99.90
25112;DHT22;13092;51.996;4.458;2022-10-18T10:32:27;16.50;99.90
25112;DHT22;13092;51.996;4.458;2022-10-18T10:35:00;16.40;99.90
25112;DHT22;13092;51.996;4.458;2022-10-18T10:37:31;16.60;99.90
25112;DHT22;13092;51.996;4.458;2022-10-18T10:40:21;16.60;99.90
25112;DHT22;13092;51.996;4.458;2022-10-18T10:42:58;16.80;99.90
25112;DHT22;13092;51.996;4.458;2022-10-18T10:45:56;16.90;99.90
25112;DHT22;13092;51.996;4.458;2022-10-18T10:48:25;17.00;99.90
25112;DHT22;13092;51.996;4.458;2022-10-18T10:51:03;17.00;99.90
25112;DHT22;13092;51.996;4.458;2022-10-18T10:53:35;17.10;99.90
25112;DHT22;13092;51.996;4.458;2022-10-18T10:56:05;17.20;99.90
25112;DHT22;13092;51.996;4.458;2022-10-18T10:58:35;17.20;99.90
25112;DHT22;13092;51.996;4.458;2022-10-18T11:01:22;17.30;99.90
25112;DHT22;13092;51.996;4.458;2022-10-18T11:03:52;17.30;99.90
25112;DHT22;13092;51.996;4.458;2022-10-18T11:09:35;17.40;99.90
25112;DHT22;13092;51.996;4.458;2022-10-18T11:12:13;17.50;99.90
25112;DHT22;13092;51.996;4.458;2022-10-18T11:14:47;17.50;99.90
25112;DHT22;13092;51.996;4.458;2022-10-18T11:17:22;17.60;99.90
25112;DHT22;13092;51.996;4.458;2022-10-18T11:20:12;17.70;99.90
25112;DHT22;13092;51.996;4.458;2022-10-18T11:22:45;17.70;99.90
25112;DHT22;13092;51.996;4.458;2022-10-18T11:25:17;17.70;99.90
25112;DHT22;13092;51.996;4.458;2022-10-18T11:27:51;17.80;99.90
25112;DHT22;13092;51.996;4.458;2022-10-18T11:30:39;17.80;99.90
25112;DHT22;13092;51.996;4.458;2022-10-18T11:33:20;17.90;99.90
25112;DHT22;13092;51.996;4.458;2022-10-18T11:36:07;17.90;99.90
25112;DHT22;13092;51.996;4.458;2022-10-18T11:38:40;18.00;99.90
25112;DHT22;13092;51.996;4.458;2022-10-18T11:41:21;18.00;99.90
25112;DHT22;13092;51.996;4.458;2022-10-18T11:43:54;18.10;99.90
25112;DHT22;13092;51.996;4.458;2022-10-18T11:46:44;18.10;99.90
25112;DHT22;13092;51.996;4.458;2022-10-18T11:49:36;18.20;99.90
25112;DHT22;13092;51.996;4.458;2022-10-18T11:52:12;18.20;99.90
25112;DHT22;13092;51.996;4.458;2022-10-18T11:55:00;18.20;99.90
25112;DHT22;13092;51.996;4.458;2022-10-18T11:57:42;18.30;99.90
25112;DHT22;13092;51.996;4.458;2022-10-18T12:00:26;18.30;99.90
25112;DHT22;13092;51.996;4.458;2022-10-18T12:03:12;18.40;99.90
25112;DHT22;13092;51.996;4.458;2022-10-18T12:05:44;18.40;99.90
25112;DHT22;13092;51.996;4.458;2022-10-18T12:08:15;18.40;99.90
25112;DHT22;13092;51.996;4.458;2022-10-18T12:10:49;18.40;99.90
25112;DHT22;13092;51.996;4.458;2022-10-18T12:13:38;18.40;99.90
25112;DHT22;13092;51.996;4.458;2022-10-18T12:16:07;18.50;99.90
25112;DHT22;13092;51.996;4.458;2022-10-18T12:18:51;18.50;99.90
25112;DHT22;13092;51.996;4.458;2022-10-18T12:21:22;18.50;99.90
25112;DHT22;13092;51.996;4.458;2022-10-18T12:23:55;18.60;99.90
25112;DHT22;13092;51.996;4.458;2022-10-18T12:26:25;18.60;99.90
25112;DHT22;13092;51.996;4.458;2022-10-18T12:29:11;18.60;99.90
25112;DHT22;13092;51.996;4.458;2022-10-18T12:31:43;18.50;99.90
25112;DHT22;13092;51.996;4.458;2022-10-18T12:34:26;18.60;99.90
25112;DHT22;13092;51.996;4.458;2022-10-18T12:37:10;18.50;99.90
25112;DHT22;13092;51.996;4.458;2022-10-18T12:39:43;18.60;99.90
25112;DHT22;13092;51.996;4.458;2022-10-18T12:42:32;18.60;99.90
25112;DHT22;13092;51.996;4.458;2022-10-18T12:45:24;18.60;99.90
25112;DHT22;13092;51.996;4.458;2022-10-18T12:47:53;18.60;99.90
25112;DHT22;13092;51.996;4.458;2022-10-18T12:50:34;18.60;99.90
25112;DHT22;13092;51.996;4.458;2022-10-18T12:53:22;18.50;99.90
25112;DHT22;13092;51.996;4.458;2022-10-18T12:55:51;18.60;99.90
25112;DHT22;13092;51.996;4.458;2022-10-18T12:58:26;18.50;99.90
25112;DHT22;13092;51.996;4.458;2022-10-18T13:01:06;18.50;99.90
25112;DHT22;13092;51.996;4.458;2022-10-18T13:03:58;18.60;99.90
25112;DHT22;13092;51.996;4.458;2022-10-18T13:09:35;18.60;99.90
25112;DHT22;13092;51.996;4.458;2022-10-18T13:12:41;18.50;99.90
25112;DHT22;13092;51.996;4.458;2022-10-18T13:15:37;18.60;99.90
25112;DHT22;13092;51.996;4.458;2022-10-18T13:18:18;18.60;99.90
25112;DHT22;13092;51.996;4.458;2022-10-18T13:20:56;18.60;99.90
25112;DHT22;13092;51.996;4.458;2022-10-18T13:23:37;18.40;99.90
25112;DHT22;13092;51.996;4.458;2022-10-18T13:26:15;18.50;99.90
25112;DHT22;13092;51.996;4.458;2022-10-18T13:28:51;18.60;99.90
25112;DHT22;13092;51.996;4.458;2022-10-18T13:31:29;18.50;99.90
25112;DHT22;13092;51.996;4.458;2022-10-18T13:34:23;18.50;99.90
25112;DHT22;13092;51.996;4.458;2022-10-18T13:36:56;18.50;99.90
25112;DHT22;13092;51.996;4.458;2022-10-18T13:39:28;18.50;99.90
25112;DHT22;13092;51.996;4.458;2022-10-18T13:42:26;18.40;99.90
25112;DHT22;13092;51.996;4.458;2022-10-18T13:51:37;18.50;99.90
25112;DHT22;13092;51.996;4.458;2022-10-18T13:54:34;18.50;99.90
25112;DHT22;13092;51.996;4.458;2022-10-18T13:57:14;18.50;99.90
25112;DHT22;13092;51.996;4.458;2022-10-18T14:00:03;18.50;99.90
25112;DHT22;13092;51.996;4.458;2022-10-18T14:02:52;18.40;99.90
25112;DHT22;13092;51.996;4.458;2022-10-18T14:05:48;18.50;99.90
25112;DHT22;13092;51.996;4.458;2022-10-18T14:08:23;18.40;99.90
25112;DHT22;13092;51.996;4.458;2022-10-18T14:10:59;18.40;99.90
25112;DHT22;13092;51.996;4.458;2022-10-18T14:13:35;18.40;99.90
25112;DHT22;13092;51.996;4.458;2022-10-18T14:16:09;18.50;99.90
25112;DHT22;13092;51.996;4.458;2022-10-18T14:18:40;18.50;99.90
25112;DHT22;13092;51.996;4.458;2022-10-18T14:21:14;18.40;99.90
25112;DHT22;13092;51.996;4.458;2022-10-18T14:23:49;18.50;99.90
25112;DHT22;13092;51.996;4.458;2022-10-18T14:26:19;18.50;99.90
25112;DHT22;13092;51.996;4.458;2022-10-18T14:29:02;18.50;99.90
25112;DHT22;13092;51.996;4.458;2022-10-18T14:31:30;18.50;99.90
25112;DHT22;13092;51.996;4.458;2022-10-18T14:34:00;18.50;99.90
25112;DHT22;13092;51.996;4.458;2022-10-18T14:36:35;18.50;99.90
25112;DHT22;13092;51.996;4.458;2022-10-18T14:39:12;18.40;99.90
25112;DHT22;13092;51.996;4.458;2022-10-18T14:41:47;18.40;99.90
25112;DHT22;13092;51.996;4.458;2022-10-18T14:44:17;18.40;99.90
25112;DHT22;13092;51.996;4.458;2022-10-18T14:46:48;18.50;99.90
25112;DHT22;13092;51.996;4.458;2022-10-18T14:49:18;18.30;99.90
25112;DHT22;13092;51.996;4.458;2022-10-18T14:51:48;18.40;99.90
25112;DHT22;13092;51.996;4.458;2022-10-18T14:54:22;18.30;99.90
25112;DHT22;13092;51.996;4.458;2022-10-18T14:56:58;18.30;99.90
25112;DHT22;13092;51.996;4.458;2022-10-18T14:59:28;18.30;99.90
25112;DHT22;13092;51.996;4.458;2022-10-18T15:01:59;18.30;99.90
25112;DHT22;13092;51.996;4.458;2022-10-18T15:04:28;18.30;99.90
25112;DHT22;13092;51.996;4.458;2022-10-18T15:06:59;18.30;99.90
25112;DHT22;13092;51.996;4.458;2022-10-18T15:09:31;18.30;99.90
25112;DHT22;13092;51.996;4.458;2022-10-18T15:12:02;18.30;99.90
25112;DHT22;13092;51.996;4.458;2022-10-18T15:14:32;18.30;99.90
25112;DHT22;13092;51.996;4.458;2022-10-18T15:17:06;18.30;99.90
25112;DHT22;13092;51.996;4.458;2022-10-18T15:19:36;18.30;99.90
25112;DHT22;13092;51.996;4.458;2022-10-18T15:22:06;18.20;99.90
25112;DHT22;13092;51.996;4.458;2022-10-18T15:25:16;18.30;99.90
25112;DHT22;13092;51.996;4.458;2022-10-18T15:27:49;18.30;99.90
25112;DHT22;13092;51.996;4.458;2022-10-18T15:30:23;18.20;99.90
25112;DHT22;13092;51.996;4.458;2022-10-18T15:32:54;18.20;99.90
25112;DHT22;13092;51.996;4.458;2022-10-18T15:35:25;18.00;99.90
25112;DHT22;13092;51.996;4.458;2022-10-18T15:37:55;17.90;99.90
25112;DHT22;13092;51.996;4.458;2022-10-18T15:40:36;17.80;99.90
25112;DHT22;13092;51.996;4.458;2022-10-18T15:45:50;17.60;99.90
25112;DHT22;13092;51.996;4.458;2022-10-18T15:48:21;17.40;99.90
25112;DHT22;13092;51.996;4.458;2022-10-18T15:50:51;17.30;99.90
25112;DHT22;13092;51.996;4.458;2022-10-18T15:53:35;17.30;99.90
25112;DHT22;13092;51.996;4.458;2022-10-18T15:56:26;17.20;99.90
25112;DHT22;13092;51.996;4.458;2022-10-18T15:58:55;17.20;99.90
25112;DHT22;13092;51.996;4.458;2022-10-18T16:01:33;17.10;99.90
25112;DHT22;13092;51.996;4.458;2022-10-18T16:04:06;17.00;99.90
25112;DHT22;13092;51.996;4.458;2022-10-18T16:06:35;17.00;99.90
25112;DHT22;13092;51.996;4.458;2022-10-18T16:09:04;16.90;99.90
25112;DHT22;13092;51.996;4.458;2022-10-18T16:11:33;16.80;99.90
25112;DHT22;13092;51.996;4.458;2022-10-18T16:14:01;16.70;99.90
25112;DHT22;13092;51.996;4.458;2022-10-18T16:16:29;16.70;99.90
25112;DHT22;13092;51.996;4.458;2022-10-18T16:18:58;16.60;99.90
25112;DHT22;13092;51.996;4.458;2022-10-18T16:21:27;16.50;99.90
25112;DHT22;13092;51.996;4.458;2022-10-18T16:23:56;16.60;99.90
25112;DHT22;13092;51.996;4.458;2022-10-18T16:26:25;16.50;99.90
25112;DHT22;13092;51.996;4.458;2022-10-18T16:28:55;16.40;99.90
25112;DHT22;13092;51.996;4.458;2022-10-18T16:31:25;16.30;99.90
25112;DHT22;13092;51.996;4.458;2022-10-18T16:33:54;16.30;99.90
25112;DHT22;13092;51.996;4.458;2022-10-18T16:36:24;16.20;99.90
25112;DHT22;13092;51.996;4.458;2022-10-18T16:38:54;16.10;99.90